Time;durP1;ratioP1;P1;durP2;ratioP2;P2;SDS_P1;SDS_P2;PMS_P1;PMS_P2;Temp;Humidity;BMP_temperature;BMP_pressure;BME280_temperature;BME280_humidity;BME280_pressure;Samples;Min_cycle;Max_cycle;Signal;HPM_P1;HPM_P2
2022/08/19 00:01:19;;;;;;;;;;;15.30;99.90;;;;;;5093131;28;19908;-72
2022/08/19 00:03:44;;;;;;;;;;;15.20;99.90;;;;;;5092648;28;19915;-73
2022/08/19 00:06:10;;;;;;;;;;;15.20;99.90;;;;;;5093357;28;20277;-72
2022/08/19 00:08:36;;;;;;;;;;;15.20;99.90;;;;;;5092808;28;19995;-72
2022/08/19 00:11:01;;;;;;;;;;;15.20;99.90;;;;;;5092283;28;19980;-73
2022/08/19 00:13:28;;;;;;;;;;;15.20;99.90;;;;;;5093086;28;20440;-73
2022/08/19 00:15:54;;;;;;;;;;;15.20;99.90;;;;;;5092668;28;19909;-73
2022/08/19 00:18:20;;;;;;;;;;;15.10;99.90;;;;;;5092746;28;19908;-72
2022/08/19 00:20:46;;;;;;;;;;;15.10;99.90;;;;;;5092545;28;20376;-73
2022/08/19 00:23:11;;;;;;;;;;;15.10;99.90;;;;;;5093018;28;19912;-72
2022/08/19 00:25:37;;;;;;;;;;;15.00;99.90;;;;;;5092846;28;19908;-73
2022/08/19 00:28:04;;;;;;;;;;;15.00;99.90;;;;;;5092682;28;20357;-72
2022/08/19 00:30:30;;;;;;;;;;;15.00;99.90;;;;;;5093058;28;19915;-72
2022/08/19 00:32:56;;;;;;;;;;;15.00;99.90;;;;;;5092454;28;19912;-72
2022/08/19 00:35:21;;;;;;;;;;;14.90;99.90;;;;;;5092988;28;20327;-72
2022/08/19 00:37:48;;;;;;;;;;;14.90;99.90;;;;;;5091991;28;19908;-72
2022/08/19 00:40:13;;;;;;;;;;;14.90;99.90;;;;;;5093205;28;20429;-72
2022/08/19 00:42:39;;;;;;;;;;;14.90;99.90;;;;;;5092604;28;19991;-72
2022/08/19 00:45:09;;;;;;;;;;;14.80;99.90;;;;;;5092950;28;20361;-72
2022/08/19 00:47:35;;;;;;;;;;;14.80;99.90;;;;;;5092417;28;19909;-72
2022/08/19 00:50:00;;;;;;;;;;;14.80;99.90;;;;;;5092458;28;19912;-73
2022/08/19 00:52:30;;;;;;;;;;;14.80;99.90;;;;;;5092484;28;19909;-72
2022/08/19 00:54:57;;;;;;;;;;;14.80;99.90;;;;;;5092430;28;19939;-72
2022/08/19 00:57:35;;;;;;;;;;;14.70;99.90;;;;;;5091477;28;19912;-72
2022/08/19 01:00:01;;;;;;;;;;;14.70;99.90;;;;;;5092315;28;19904;-72
2022/08/19 01:02:27;;;;;;;;;;;14.70;99.90;;;;;;5092682;28;19908;-72
2022/08/19 01:04:53;;;;;;;;;;;14.70;99.90;;;;;;5091967;28;19915;-72
2022/08/19 01:07:19;;;;;;;;;;;14.70;99.90;;;;;;5092736;28;20268;-73
2022/08/19 01:09:44;;;;;;;;;;;14.70;99.90;;;;;;5092005;28;20345;-73
2022/08/19 01:12:10;;;;;;;;;;;14.70;99.90;;;;;;5092493;28;20325;-73
2022/08/19 01:14:38;;;;;;;;;;;14.70;99.90;;;;;;5092590;28;19965;-73
2022/08/19 01:17:04;;;;;;;;;;;14.70;99.90;;;;;;5092087;28;19908;-73
2022/08/19 01:19:35;;;;;;;;;;;14.70;99.90;;;;;;5092469;28;19962;-72
2022/08/19 01:22:05;;;;;;;;;;;14.70;99.90;;;;;;5093789;28;19912;-72
2022/08/19 01:24:30;;;;;;;;;;;14.80;99.90;;;;;;5096370;28;19908;-73
2022/08/19 01:26:56;;;;;;;;;;;14.80;99.90;;;;;;5095560;28;19961;-73
2022/08/19 01:29:22;;;;;;;;;;;14.80;99.90;;;;;;5096164;28;20381;-72
2022/08/19 01:31:52;;;;;;;;;;;14.90;99.90;;;;;;5095443;28;20387;-73
2022/08/19 01:34:18;;;;;;;;;;;14.90;99.90;;;;;;5096004;28;19963;-72
2022/08/19 01:36:45;;;;;;;;;;;14.90;99.90;;;;;;5095632;28;19947;-72
2022/08/19 01:39:13;;;;;;;;;;;14.90;99.90;;;;;;5096393;28;19953;-72
2022/08/19 01:41:39;;;;;;;;;;;14.90;99.90;;;;;;5095763;28;19908;-72
2022/08/19 01:44:05;;;;;;;;;;;14.90;99.90;;;;;;5095168;28;19912;-73
2022/08/19 01:46:31;;;;;;;;;;;14.90;99.90;;;;;;5095909;28;19908;-72
2022/08/19 01:48:58;;;;;;;;;;;14.80;99.90;;;;;;5094959;28;20349;-72
2022/08/19 01:51:24;;;;;;;;;;;14.90;99.90;;;;;;5095504;28;19915;-72
2022/08/19 01:53:50;;;;;;;;;;;14.80;99.90;;;;;;5095491;28;19915;-73
2022/08/19 01:56:16;;;;;;;;;;;14.80;99.90;;;;;;5095993;28;19995;-72
2022/08/19 01:58:46;;;;;;;;;;;14.90;99.90;;;;;;5095651;28;19948;-72
2022/08/19 02:01:12;;;;;;;;;;;14.90;99.90;;;;;;5095461;28;20353;-74
2022/08/19 02:03:37;;;;;;;;;;;14.90;99.90;;;;;;5095630;28;19908;-73
2022/08/19 02:06:04;;;;;;;;;;;15.00;99.90;;;;;;5095054;28;19919;-73
2022/08/19 02:08:31;;;;;;;;;;;15.00;99.90;;;;;;5095830;28;19915;-70
2022/08/19 02:10:57;;;;;;;;;;;15.00;99.90;;;;;;5095033;28;20444;-73
2022/08/19 02:13:23;;;;;;;;;;;15.00;99.90;;;;;;5095213;28;19999;-72
2022/08/19 02:15:49;;;;;;;;;;;15.00;99.90;;;;;;5095131;28;19908;-72
2022/08/19 02:18:14;;;;;;;;;;;15.00;99.90;;;;;;5094982;28;20012;-72
2022/08/19 02:20:41;;;;;;;;;;;15.00;99.90;;;;;;5095250;28;19908;-72
2022/08/19 02:23:07;;;;;;;;;;;14.90;99.90;;;;;;5094763;28;19904;-73
2022/08/19 02:25:33;;;;;;;;;;;15.00;99.90;;;;;;5095232;28;19915;-72
2022/08/19 02:27:58;;;;;;;;;;;14.90;99.90;;;;;;5094543;28;19908;-73
2022/08/19 02:30:24;;;;;;;;;;;15.00;99.90;;;;;;5095196;28;19915;-73
2022/08/19 02:32:50;;;;;;;;;;;14.90;99.90;;;;;;5094461;28;19909;-72
2022/08/19 02:35:16;;;;;;;;;;;14.80;99.90;;;;;;5094496;28;20367;-72
2022/08/19 02:40:27;;;;;;;;;;;14.80;99.90;;;;;;5094940;28;20376;-73
2022/08/19 02:42:53;;;;;;;;;;;14.70;99.90;;;;;;5094285;28;20003;-73
2022/08/19 02:45:18;;;;;;;;;;;14.70;99.90;;;;;;5094989;28;20372;-73
2022/08/19 02:47:44;;;;;;;;;;;14.70;99.90;;;;;;5093652;28;20002;-74
2022/08/19 02:50:10;;;;;;;;;;;14.70;99.90;;;;;;5094140;28;19982;-71
2022/08/19 02:52:36;;;;;;;;;;;14.70;99.90;;;;;;5094544;28;19916;-72
2022/08/19 02:55:01;;;;;;;;;;;14.70;99.90;;;;;;5094040;28;19974;-73
2022/08/19 02:57:27;;;;;;;;;;;14.70;99.90;;;;;;5094479;28;19947;-73
2022/08/19 02:59:53;;;;;;;;;;;14.60;99.90;;;;;;5093676;28;19909;-73
2022/08/19 03:02:19;;;;;;;;;;;14.60;99.90;;;;;;5094410;28;19922;-72
2022/08/19 03:04:45;;;;;;;;;;;14.50;99.90;;;;;;5094176;28;19915;-72
2022/08/19 03:07:13;;;;;;;;;;;14.50;99.90;;;;;;5093878;28;19911;-72
2022/08/19 03:09:39;;;;;;;;;;;14.50;99.90;;;;;;5094047;28;19986;-73
2022/08/19 03:12:04;;;;;;;;;;;14.50;99.90;;;;;;5093734;28;19909;-72
2022/08/19 03:14:31;;;;;;;;;;;14.50;99.90;;;;;;5094196;28;19916;-72
2022/08/19 03:16:57;;;;;;;;;;;14.40;99.90;;;;;;5094039;28;19953;-72
2022/08/19 03:19:22;;;;;;;;;;;14.40;99.90;;;;;;5094130;28;19912;-73
2022/08/19 03:21:48;;;;;;;;;;;14.40;99.90;;;;;;5093792;28;19916;-72
2022/08/19 03:24:15;;;;;;;;;;;14.40;99.90;;;;;;5093732;28;19915;-72
2022/08/19 03:26:42;;;;;;;;;;;14.30;99.90;;;;;;5093996;28;19912;-72
2022/08/19 03:29:10;;;;;;;;;;;14.30;99.90;;;;;;5093072;28;20276;-72
2022/08/19 03:31:36;;;;;;;;;;;14.30;99.90;;;;;;5093949;28;19955;-73
2022/08/19 03:34:02;;;;;;;;;;;14.20;99.90;;;;;;5093042;28;20373;-72
2022/08/19 03:36:28;;;;;;;;;;;14.30;99.90;;;;;;5092582;28;19916;-72
2022/08/19 03:38:55;;;;;;;;;;;14.40;99.90;;;;;;5093145;28;19994;-73
2022/08/19 03:41:23;;;;;;;;;;;14.40;99.90;;;;;;5093929;28;20312;-72
2022/08/19 03:43:49;;;;;;;;;;;14.40;99.90;;;;;;5093222;28;20000;-73
2022/08/19 03:46:16;;;;;;;;;;;14.30;99.90;;;;;;5092807;28;20365;-73
2022/08/19 03:48:43;;;;;;;;;;;14.30;99.90;;;;;;5093672;28;19908;-72
2022/08/19 03:51:19;;;;;;;;;;;14.30;99.90;;;;;;5092962;28;19908;-72
2022/08/19 03:53:45;;;;;;;;;;;14.20;99.90;;;;;;5093483;28;19916;-72
2022/08/19 03:56:12;;;;;;;;;;;14.30;99.90;;;;;;5092598;28;19998;-73
2022/08/19 03:58:39;;;;;;;;;;;14.30;99.90;;;;;;5093479;28;19915;-73
2022/08/19 04:01:09;;;;;;;;;;;14.30;99.90;;;;;;5092853;28;19957;-72
2022/08/19 04:03:38;;;;;;;;;;;14.30;99.90;;;;;;5093731;28;19908;-73
2022/08/19 04:06:14;;;;;;;;;;;14.30;99.90;;;;;;5092492;28;19915;-73
2022/08/19 04:08:41;;;;;;;;;;;14.30;99.90;;;;;;5092214;28;20276;-72
2022/08/19 04:11:08;;;;;;;;;;;14.30;99.90;;;;;;5092784;28;19962;-73
2022/08/19 04:13:34;;;;;;;;;;;14.30;99.90;;;;;;5093240;28;19986;-73
2022/08/19 04:15:59;;;;;;;;;;;14.20;99.90;;;;;;5092427;28;19908;-72
2022/08/19 04:18:25;;;;;;;;;;;14.30;99.90;;;;;;5093467;28;19916;-72
2022/08/19 04:20:50;;;;;;;;;;;14.20;99.90;;;;;;5093287;28;20400;-72
2022/08/19 04:23:16;;;;;;;;;;;14.30;99.90;;;;;;5092290;28;19915;-72
2022/08/19 04:25:43;;;;;;;;;;;14.30;99.90;;;;;;5092879;28;19912;-73
2022/08/19 04:28:10;;;;;;;;;;;14.20;99.90;;;;;;5092667;28;19948;-72
2022/08/19 04:30:40;;;;;;;;;;;14.20;99.90;;;;;;5092989;28;19912;-72
2022/08/19 04:33:05;;;;;;;;;;;14.20;99.90;;;;;;5092594;28;19916;-73
2022/08/19 04:35:50;;;;;;;;;;;14.20;99.90;;;;;;5093210;28;20276;-73
2022/08/19 04:38:16;;;;;;;;;;;14.10;99.90;;;;;;5092620;28;20445;-73
2022/08/19 04:43:27;;;;;;;;;;;14.00;99.90;;;;;;5093136;28;19954;-72
2022/08/19 04:45:53;;;;;;;;;;;14.10;99.90;;;;;;5091659;28;19908;-72
2022/08/19 04:48:26;;;;;;;;;;;14.10;99.90;;;;;;5092490;28;19943;-74
2022/08/19 04:50:57;;;;;;;;;;;14.00;99.90;;;;;;5092894;28;20345;-73
2022/08/19 04:53:30;;;;;;;;;;;14.00;99.90;;;;;;5092659;28;19919;-74
2022/08/19 04:55:56;;;;;;;;;;;14.00;99.90;;;;;;5093890;28;19963;-73
2022/08/19 04:58:23;;;;;;;;;;;14.00;99.90;;;;;;5096766;28;19912;-73
2022/08/19 05:00:48;;;;;;;;;;;13.90;99.90;;;;;;5096989;28;19977;-72
2022/08/19 05:03:16;;;;;;;;;;;13.90;99.90;;;;;;5096367;28;20341;-72
2022/08/19 05:05:44;;;;;;;;;;;13.90;99.90;;;;;;5096759;28;19978;-72
2022/08/19 05:08:10;;;;;;;;;;;13.90;99.90;;;;;;5096264;28;20440;-72
2022/08/19 05:10:36;;;;;;;;;;;13.90;99.90;;;;;;5096834;28;19927;-72
2022/08/19 05:13:02;;;;;;;;;;;13.90;99.90;;;;;;5096274;28;20057;-72
2022/08/19 05:15:28;;;;;;;;;;;13.90;99.90;;;;;;5096262;28;20424;-72
2022/08/19 05:23:22;;;;;;;;;;;14.00;99.90;;;;;;5096016;28;19953;-72
2022/08/19 05:25:48;;;;;;;;;;;14.00;99.90;;;;;;5096311;28;19911;-72
2022/08/19 05:28:13;;;;;;;;;;;14.00;99.90;;;;;;5095764;28;19943;-72
2022/08/19 05:30:40;;;;;;;;;;;13.90;99.90;;;;;;5096061;28;20058;-73
2022/08/19 05:33:07;;;;;;;;;;;14.00;99.90;;;;;;5095502;28;19919;-73
2022/08/19 05:35:33;;;;;;;;;;;14.00;99.90;;;;;;5094742;28;19943;-72
2022/08/19 05:37:58;;;;;;;;;;;13.90;99.90;;;;;;5095536;28;19908;-73
2022/08/19 05:40:24;;;;;;;;;;;13.80;99.90;;;;;;5095737;28;20371;-72
2022/08/19 05:42:50;;;;;;;;;;;13.90;99.90;;;;;;5096071;28;19909;-72
2022/08/19 05:45:15;;;;;;;;;;;13.80;99.90;;;;;;5094255;28;19912;-73
2022/08/19 05:47:41;;;;;;;;;;;13.80;99.90;;;;;;5095902;28;20341;-73
2022/08/19 05:50:07;;;;;;;;;;;13.80;99.90;;;;;;5095092;28;19948;-73
2022/08/19 05:52:32;;;;;;;;;;;13.90;99.90;;;;;;5095743;28;19919;-73
2022/08/19 05:54:58;;;;;;;;;;;13.90;99.90;;;;;;5095401;28;19916;-72
2022/08/19 05:57:24;;;;;;;;;;;14.00;99.90;;;;;;5094962;28;19915;-73
2022/08/19 05:59:51;;;;;;;;;;;14.10;99.90;;;;;;5095689;28;20394;-73
2022/08/19 06:02:16;;;;;;;;;;;14.20;99.90;;;;;;5095005;28;19909;-73
2022/08/19 06:04:44;;;;;;;;;;;14.20;99.90;;;;;;5095273;28;19908;-73
2022/08/19 06:07:10;;;;;;;;;;;14.30;99.90;;;;;;5094337;28;19908;-72
2022/08/19 06:09:37;;;;;;;;;;;14.40;99.90;;;;;;5095334;28;19912;-72
2022/08/19 06:12:04;;;;;;;;;;;14.50;99.90;;;;;;5095255;28;20273;-74
2022/08/19 06:14:30;;;;;;;;;;;14.60;99.90;;;;;;5095167;28;19916;-73
2022/08/19 06:16:57;;;;;;;;;;;14.70;99.90;;;;;;5095065;28;19920;-73
2022/08/19 06:19:24;;;;;;;;;;;14.70;99.90;;;;;;5094586;28;20179;-73
2022/08/19 06:21:51;;;;;;;;;;;14.80;99.90;;;;;;5095200;28;19908;-73
2022/08/19 06:24:18;;;;;;;;;;;14.80;99.90;;;;;;5094480;28;19908;-73
2022/08/19 06:26:46;;;;;;;;;;;14.80;99.90;;;;;;5095203;28;19956;-74
2022/08/19 06:29:13;;;;;;;;;;;14.90;99.90;;;;;;5094525;28;19908;-74
2022/08/19 06:31:41;;;;;;;;;;;14.90;99.90;;;;;;5095059;28;19915;-73
2022/08/19 06:34:06;;;;;;;;;;;14.90;99.90;;;;;;5094392;28;19943;-73
2022/08/19 06:36:33;;;;;;;;;;;15.00;99.90;;;;;;5095000;28;19908;-73
2022/08/19 06:39:03;;;;;;;;;;;14.90;99.90;;;;;;5094717;28;19908;-73
2022/08/19 06:41:30;;;;;;;;;;;15.00;99.90;;;;;;5094699;28;20008;-72
2022/08/19 06:43:56;;;;;;;;;;;15.10;99.90;;;;;;5094252;28;19912;-72
2022/08/19 06:46:22;;;;;;;;;;;15.30;99.90;;;;;;5094132;28;19908;-72
2022/08/19 06:48:48;;;;;;;;;;;15.40;99.90;;;;;;5094720;28;19961;-72
2022/08/19 06:51:15;;;;;;;;;;;15.50;99.90;;;;;;5092731;28;19955;-72
2022/08/19 06:53:46;;;;;;;;;;;15.60;99.90;;;;;;5094721;28;20011;-72
2022/08/19 06:56:13;;;;;;;;;;;15.70;99.90;;;;;;5093976;28;20324;-72
2022/08/19 06:58:38;;;;;;;;;;;15.90;99.90;;;;;;5094327;28;19908;-72
2022/08/19 07:01:04;;;;;;;;;;;15.90;99.90;;;;;;5094531;28;19915;-72
2022/08/19 07:03:32;;;;;;;;;;;16.10;99.90;;;;;;5094096;28;19908;-72
2022/08/19 07:06:01;;;;;;;;;;;16.20;99.90;;;;;;5094423;28;19908;-72
2022/08/19 07:08:27;;;;;;;;;;;16.20;99.90;;;;;;5093766;28;19908;-72
2022/08/19 07:10:53;;;;;;;;;;;16.30;99.90;;;;;;5094347;28;19915;-73
2022/08/19 07:13:19;;;;;;;;;;;16.30;99.90;;;;;;5093618;28;19953;-73
2022/08/19 07:15:46;;;;;;;;;;;16.40;99.90;;;;;;5094124;28;19981;-73
2022/08/19 07:18:11;;;;;;;;;;;16.70;99.90;;;;;;5092291;28;19908;-74
2022/08/19 07:20:38;;;;;;;;;;;16.70;99.90;;;;;;5094574;28;20369;-73
2022/08/19 07:23:04;;;;;;;;;;;16.70;99.90;;;;;;5093624;28;19911;-73
2022/08/19 07:25:29;;;;;;;;;;;16.50;99.90;;;;;;5093297;28;20410;-73
2022/08/19 07:27:55;;;;;;;;;;;16.50;99.90;;;;;;5092887;28;19919;-72
2022/08/19 07:30:22;;;;;;;;;;;16.60;99.90;;;;;;5092584;28;19908;-73
2022/08/19 07:32:48;;;;;;;;;;;16.60;99.90;;;;;;5093390;28;19945;-72
2022/08/19 07:35:13;;;;;;;;;;;16.70;99.90;;;;;;5092440;28;19963;-72
2022/08/19 07:37:43;;;;;;;;;;;16.60;99.90;;;;;;5094241;28;20357;-72
2022/08/19 07:40:09;;;;;;;;;;;16.80;99.90;;;;;;5093159;28;19908;-72
2022/08/19 07:42:35;;;;;;;;;;;16.90;99.90;;;;;;5094073;28;19908;-72
2022/08/19 07:45:01;;;;;;;;;;;17.00;99.90;;;;;;5092774;28;19908;-73
2022/08/19 07:47:27;;;;;;;;;;;17.10;99.90;;;;;;5092966;28;20493;-73
2022/08/19 07:49:52;;;;;;;;;;;17.10;99.90;;;;;;5093325;28;19908;-72
2022/08/19 07:52:18;;;;;;;;;;;17.10;99.90;;;;;;5092225;28;19908;-73
2022/08/19 07:54:44;;;;;;;;;;;17.20;99.90;;;;;;5093388;28;20361;-72
2022/08/19 07:57:09;;;;;;;;;;;17.30;99.90;;;;;;5092533;28;19908;-72
2022/08/19 07:59:35;;;;;;;;;;;17.30;99.90;;;;;;5092103;28;19912;-72
2022/08/19 08:02:02;;;;;;;;;;;17.40;99.90;;;;;;5092838;28;19908;-72
2022/08/19 08:09:56;;;;;;;;;;;17.60;99.90;;;;;;5092434;28;20022;-73
2022/08/19 08:12:25;;;;;;;;;;;17.70;99.90;;;;;;5092048;28;19935;-74
2022/08/19 08:14:52;;;;;;;;;;;17.70;99.90;;;;;;5092572;28;19985;-73
2022/08/19 08:17:19;;;;;;;;;;;17.70;99.90;;;;;;5090430;28;19908;-74
2022/08/19 08:19:45;;;;;;;;;;;17.60;99.90;;;;;;5092918;28;19930;-73
2022/08/19 08:23:22;;;;;;;;;;;17.50;99.90;;;;;;5092705;28;19957;-73
2022/08/19 08:25:11;;;;;;;;;;;17.50;99.90;;;;;;5093115;28;20319;-73
2022/08/19 08:27:41;;;;;;;;;;;17.70;99.90;;;;;;5092818;28;19908;-73
2022/08/19 08:30:09;;;;;;;;;;;17.90;99.90;;;;;;5092426;28;19915;-73
2022/08/19 08:32:35;;;;;;;;;;;18.10;99.90;;;;;;5092277;28;20307;-72
2022/08/19 08:35:00;;;;;;;;;;;18.10;99.90;;;;;;5092627;28;20369;-73
2022/08/19 08:37:26;;;;;;;;;;;18.30;99.90;;;;;;5092433;28;19916;-73
2022/08/19 08:39:52;;;;;;;;;;;18.40;99.90;;;;;;5093255;28;20349;-73
2022/08/19 08:42:27;;;;;;;;;;;18.50;99.90;;;;;;5091962;28;19908;-73
2022/08/19 08:45:00;;;;;;;;;;;18.60;99.90;;;;;;5092937;28;20238;-73
2022/08/19 08:47:28;;;;;;;;;;;18.70;99.90;;;;;;5092176;28;20088;-72
2022/08/19 08:49:53;;;;;;;;;;;18.80;99.90;;;;;;5091350;28;19930;-74
2022/08/19 08:52:29;;;;;;;;;;;18.90;99.90;;;;;;5091897;28;19908;-73
2022/08/19 08:54:56;;;;;;;;;;;18.70;99.90;;;;;;5091576;28;19920;-73
2022/08/19 08:57:28;;;;;;;;;;;18.70;99.90;;;;;;5092353;28;19919;-73
2022/08/19 08:59:54;;;;;;;;;;;18.70;99.90;;;;;;5091936;28;20285;-73
2022/08/19 09:02:19;;;;;;;;;;;18.90;99.90;;;;;;5092112;28;19908;-74
2022/08/19 09:04:45;;;;;;;;;;;19.00;99.90;;;;;;5092910;28;19912;-74
2022/08/19 09:07:11;;;;;;;;;;;19.00;99.90;;;;;;5092264;28;19909;-74
2022/08/19 09:09:39;;;;;;;;;;;19.00;99.90;;;;;;5091725;28;20357;-74
2022/08/19 09:12:09;;;;;;;;;;;18.90;99.90;;;;;;5092345;28;19912;-74
2022/08/19 09:14:40;;;;;;;;;;;18.90;99.90;;;;;;5091807;28;19926;-74
2022/08/19 09:17:07;;;;;;;;;;;18.80;99.90;;;;;;5092477;28;19962;-73
2022/08/19 09:19:34;;;;;;;;;;;18.70;99.90;;;;;;5091956;28;20494;-73
2022/08/19 09:22:00;;;;;;;;;;;18.70;99.90;;;;;;5092158;28;19915;-73
2022/08/19 09:24:26;;;;;;;;;;;18.80;99.90;;;;;;5091878;28;20010;-73
2022/08/19 09:26:51;;;;;;;;;;;18.80;99.90;;;;;;5092625;28;19912;-73
2022/08/19 09:29:17;;;;;;;;;;;19.10;99.90;;;;;;5091745;28;19908;-73
2022/08/19 09:31:42;;;;;;;;;;;19.20;99.90;;;;;;5091987;28;19912;-74
2022/08/19 09:34:08;;;;;;;;;;;19.40;99.90;;;;;;5092009;28;20372;-72
2022/08/19 09:36:35;;;;;;;;;;;19.60;99.90;;;;;;5091221;28;19995;-74
2022/08/19 09:39:03;;;;;;;;;;;19.70;99.90;;;;;;5090557;28;20365;-74
2022/08/19 09:41:29;;;;;;;;;;;19.60;99.90;;;;;;5092024;28;19909;-73
2022/08/19 09:43:56;;;;;;;;;;;19.60;99.90;;;;;;5095619;28;20402;-74
2022/08/19 09:46:23;;;;;;;;;;;19.40;99.90;;;;;;5094641;28;19916;-74
2022/08/19 09:48:50;;;;;;;;;;;19.30;99.90;;;;;;5095014;28;19947;-73
2022/08/19 09:51:17;;;;;;;;;;;19.00;99.90;;;;;;5092806;28;19995;-73
2022/08/19 09:53:46;;;;;;;;;;;18.90;99.90;;;;;;5094026;28;20366;-73
2022/08/19 09:56:12;;;;;;;;;;;18.80;99.90;;;;;;5093835;28;19930;-74
2022/08/19 09:58:37;;;;;;;;;;;18.60;99.90;;;;;;5094209;28;19912;-73
2022/08/19 10:01:04;;;;;;;;;;;18.50;99.90;;;;;;5093239;28;19908;-73
2022/08/19 10:03:31;;;;;;;;;;;18.40;99.90;;;;;;5094623;28;19908;-73
2022/08/19 10:05:57;;;;;;;;;;;18.30;99.90;;;;;;5094991;28;19912;-74
2022/08/19 10:08:25;;;;;;;;;;;18.10;99.90;;;;;;5094440;28;19912;-74
2022/08/19 10:10:51;;;;;;;;;;;18.00;99.90;;;;;;5094971;28;20015;-73
2022/08/19 10:13:24;;;;;;;;;;;17.90;99.90;;;;;;5094284;28;20269;-74
2022/08/19 10:15:50;;;;;;;;;;;17.90;99.90;;;;;;5094527;28;19982;-74
2022/08/19 10:18:17;;;;;;;;;;;17.90;99.90;;;;;;5094620;28;19919;-73
2022/08/19 10:20:45;;;;;;;;;;;18.00;99.90;;;;;;5094528;28;20269;-74
2022/08/19 10:23:11;;;;;;;;;;;18.10;99.90;;;;;;5094800;28;20364;-74
2022/08/19 10:25:37;;;;;;;;;;;18.10;99.90;;;;;;5094011;28;20042;-74
2022/08/19 10:28:03;;;;;;;;;;;18.00;99.90;;;;;;5094492;28;19909;-74
2022/08/19 10:30:28;;;;;;;;;;;18.00;99.90;;;;;;5093872;28;20310;-73
2022/08/19 10:32:54;;;;;;;;;;;18.00;99.90;;;;;;5094768;28;19909;-74
2022/08/19 10:35:20;;;;;;;;;;;18.00;99.90;;;;;;5093634;28;20069;-73
2022/08/19 10:37:45;;;;;;;;;;;18.10;99.90;;;;;;5094467;28;19912;-73
2022/08/19 10:40:11;;;;;;;;;;;18.40;99.90;;;;;;5094745;28;20303;-74
2022/08/19 10:42:37;;;;;;;;;;;18.40;99.90;;;;;;5093391;28;19912;-73
2022/08/19 10:45:05;;;;;;;;;;;18.40;99.90;;;;;;5094225;28;20397;-74
2022/08/19 10:47:31;;;;;;;;;;;18.40;99.90;;;;;;5092469;28;19915;-73
2022/08/19 10:52:46;;;;;;;;;;;18.30;99.90;;;;;;5093614;28;19915;-73
2022/08/19 10:57:57;;;;;;;;;;;18.40;99.90;;;;;;5093772;28;20300;-74
2022/08/19 11:00:23;;;;;;;;;;;18.50;99.90;;;;;;5091811;28;19912;-74
2022/08/19 11:02:49;;;;;;;;;;;18.70;99.90;;;;;;5094060;28;19908;-73
2022/08/19 11:05:14;;;;;;;;;;;18.90;99.90;;;;;;5093918;28;19931;-74
2022/08/19 11:07:40;;;;;;;;;;;19.10;99.90;;;;;;5093461;28;20318;-74
2022/08/19 11:10:07;;;;;;;;;;;19.30;99.90;;;;;;5093509;28;20016;-74
2022/08/19 11:12:33;;;;;;;;;;;19.50;99.90;;;;;;5093420;28;19961;-73
2022/08/19 11:14:58;;;;;;;;;;;19.70;99.90;;;;;;5093643;28;19920;-73
2022/08/19 11:17:24;;;;;;;;;;;19.90;99.90;;;;;;5092786;28;19935;-74
2022/08/19 11:19:49;;;;;;;;;;;20.00;99.90;;;;;;5093656;28;19954;-74
2022/08/19 11:22:16;;;;;;;;;;;20.00;99.90;;;;;;5092456;28;19912;-74
2022/08/19 11:24:42;;;;;;;;;;;20.00;99.90;;;;;;5093318;28;20264;-74
2022/08/19 11:27:09;;;;;;;;;;;20.00;99.90;;;;;;5093443;28;19908;-74
2022/08/19 11:29:36;;;;;;;;;;;20.10;99.90;;;;;;5092712;28;19950;-74
2022/08/19 11:32:06;;;;;;;;;;;20.20;99.90;;;;;;5093159;28;19999;-74
2022/08/19 11:34:32;;;;;;;;;;;20.30;99.90;;;;;;5092608;28;19934;-74
2022/08/19 11:36:58;;;;;;;;;;;20.50;99.90;;;;;;5093592;28;19912;-75
2022/08/19 11:39:24;;;;;;;;;;;20.60;99.90;;;;;;5092678;28;20006;-74
2022/08/19 11:41:50;;;;;;;;;;;20.50;99.90;;;;;;5093272;28;19974;-73
2022/08/19 11:44:16;;;;;;;;;;;20.50;99.90;;;;;;5091579;28;19919;-74
2022/08/19 11:46:46;;;;;;;;;;;20.30;99.90;;;;;;5092474;28;19908;-74
2022/08/19 11:49:12;;;;;;;;;;;20.30;99.90;;;;;;5093039;28;20272;-74
2022/08/19 11:51:38;;;;;;;;;;;20.20;99.90;;;;;;5092378;28;19908;-73
2022/08/19 11:54:04;;;;;;;;;;;20.20;99.90;;;;;;5092803;28;20779;-73
2022/08/19 11:56:30;;;;;;;;;;;20.20;99.90;;;;;;5091809;28;19939;-74
2022/08/19 11:58:56;;;;;;;;;;;20.10;99.90;;;;;;5092807;28;20099;-74
2022/08/19 12:01:23;;;;;;;;;;;20.00;99.90;;;;;;5092252;28;20284;-74
2022/08/19 12:03:49;;;;;;;;;;;19.90;99.90;;;;;;5092579;28;20413;-74
2022/08/19 12:06:16;;;;;;;;;;;20.10;99.90;;;;;;5092457;28;19908;-75
2022/08/19 12:08:43;;;;;;;;;;;20.30;99.90;;;;;;5092047;28;19908;-75
2022/08/19 12:11:08;;;;;;;;;;;20.20;99.90;;;;;;5092671;28;19908;-74
2022/08/19 12:13:34;;;;;;;;;;;20.20;99.90;;;;;;5092023;28;19909;-74
2022/08/19 12:16:00;;;;;;;;;;;20.20;99.90;;;;;;5091175;28;19942;-74
2022/08/19 12:18:26;;;;;;;;;;;20.20;99.90;;;;;;5092080;28;19912;-73
2022/08/19 12:20:54;;;;;;;;;;;20.10;99.90;;;;;;5092744;28;19915;-75
2022/08/19 12:23:19;;;;;;;;;;;20.10;99.90;;;;;;5091982;28;19908;-74
2022/08/19 12:25:49;;;;;;;;;;;20.10;99.90;;;;;;5092460;28;19981;-74
2022/08/19 12:28:21;;;;;;;;;;;20.20;99.90;;;;;;5092282;28;19950;-74
2022/08/19 12:30:48;;;;;;;;;;;20.20;99.90;;;;;;5092236;28;20313;-75
2022/08/19 12:33:14;;;;;;;;;;;20.20;99.90;;;;;;5091318;28;19909;-73
2022/08/19 12:35:44;;;;;;;;;;;20.10;99.90;;;;;;5091614;28;20169;-74
2022/08/19 12:38:10;;;;;;;;;;;20.10;99.90;;;;;;5092329;28;19908;-75
2022/08/19 12:40:35;;;;;;;;;;;20.00;99.90;;;;;;5092006;28;19908;-75
2022/08/19 12:43:01;;;;;;;;;;;20.00;99.90;;;;;;5092281;28;20014;-75
2022/08/19 12:45:27;;;;;;;;;;;20.10;99.90;;;;;;5091478;28;19909;-75
2022/08/19 12:47:52;;;;;;;;;;;20.10;99.90;;;;;;5092416;28;19951;-75
2022/08/19 12:50:19;;;;;;;;;;;20.10;99.90;;;;;;5092253;28;19909;-75
2022/08/19 12:52:44;;;;;;;;;;;20.00;99.90;;;;;;5090509;28;20354;-74
2022/08/19 12:55:11;;;;;;;;;;;19.90;99.90;;;;;;5091890;28;19916;-75
2022/08/19 12:57:37;;;;;;;;;;;19.90;99.90;;;;;;5091479;28;19957;-74
2022/08/19 13:00:10;;;;;;;;;;;19.80;99.90;;;;;;5092223;28;19908;-75
2022/08/19 13:02:37;;;;;;;;;;;19.80;99.90;;;;;;5091572;28;19912;-74
2022/08/19 13:05:03;;;;;;;;;;;20.00;99.90;;;;;;5092251;28;19914;-74
2022/08/19 13:07:30;;;;;;;;;;;20.00;99.90;;;;;;5091413;28;19986;-75
2022/08/19 13:09:55;;;;;;;;;;;20.20;99.90;;;;;;5092049;28;19912;-75
2022/08/19 13:12:21;;;;;;;;;;;20.20;99.90;;;;;;5091922;28;19999;-75
2022/08/19 13:14:50;;;;;;;;;;;20.40;99.90;;;;;;5092352;28;19923;-75
2022/08/19 13:17:16;;;;;;;;;;;20.50;99.90;;;;;;5094140;28;19919;-75
2022/08/19 13:19:42;;;;;;;;;;;20.60;99.90;;;;;;5095156;28;19908;-75
2022/08/19 13:22:07;;;;;;;;;;;20.50;99.90;;;;;;5095860;28;19908;-75
2022/08/19 13:24:33;;;;;;;;;;;20.50;99.90;;;;;;5095039;28;19953;-75
2022/08/19 13:26:59;;;;;;;;;;;20.60;99.90;;;;;;5094744;28;19974;-75
2022/08/19 13:34:54;;;;;;;;;;;21.10;99.90;;;;;;5095639;28;19975;-75
2022/08/19 13:37:40;;;;;;;;;;;21.20;99.90;;;;;;5095340;28;20368;-75
2022/08/19 13:40:05;;;;;;;;;;;21.30;99.90;;;;;;5095153;28;19926;-74
2022/08/19 13:42:32;;;;;;;;;;;21.30;99.90;;;;;;5093448;28;19912;-74
2022/08/19 13:44:58;;;;;;;;;;;21.50;99.90;;;;;;5093883;28;20041;-74
2022/08/19 13:47:24;;;;;;;;;;;21.60;99.90;;;;;;5094795;28;19944;-75
2022/08/19 13:49:49;;;;;;;;;;;21.50;99.90;;;;;;5095333;28;19948;-75
2022/08/19 13:52:15;;;;;;;;;;;21.40;99.90;;;;;;5095623;28;20257;-74
2022/08/19 13:54:40;;;;;;;;;;;21.30;99.90;;;;;;5094697;28;19912;-74
2022/08/19 13:57:06;;;;;;;;;;;21.20;99.90;;;;;;5095893;28;19912;-75
2022/08/19 13:59:33;;;;;;;;;;;21.10;99.90;;;;;;5095264;28;20353;-75
2022/08/19 14:01:59;;;;;;;;;;;21.10;99.90;;;;;;5094951;28;19908;-75
2022/08/19 14:04:24;;;;;;;;;;;21.10;99.90;;;;;;5095972;28;19930;-74
2022/08/19 14:06:50;;;;;;;;;;;21.30;99.90;;;;;;5095906;28;20417;-75
2022/08/19 14:09:16;;;;;;;;;;;21.60;99.90;;;;;;5094324;28;20249;-75
2022/08/19 14:11:41;;;;;;;;;;;21.70;99.90;;;;;;5094369;28;19938;-74
2022/08/19 14:14:07;;;;;;;;;;;21.80;99.90;;;;;;5094581;28;19916;-74
2022/08/19 14:16:32;;;;;;;;;;;21.80;99.90;;;;;;5094424;28;19908;-74
2022/08/19 14:18:58;;;;;;;;;;;21.90;99.90;;;;;;5094847;28;20382;-75
2022/08/19 14:21:24;;;;;;;;;;;21.70;99.90;;;;;;5094146;28;19945;-74
2022/08/19 14:23:50;;;;;;;;;;;21.60;99.90;;;;;;5093125;28;20002;-75
2022/08/19 14:26:17;;;;;;;;;;;21.60;99.90;;;;;;5094656;28;19912;-75
2022/08/19 14:28:43;;;;;;;;;;;21.80;99.90;;;;;;5093172;28;20054;-74
2022/08/19 14:31:12;;;;;;;;;;;21.70;99.90;;;;;;5094568;28;19908;-75
2022/08/19 14:33:38;;;;;;;;;;;21.60;99.90;;;;;;5093958;28;19920;-74
2022/08/19 14:36:05;;;;;;;;;;;21.50;99.90;;;;;;5094050;28;20258;-73
2022/08/19 14:38:31;;;;;;;;;;;21.30;99.90;;;;;;5093624;28;19908;-74
2022/08/19 14:41:19;;;;;;;;;;;21.10;99.90;;;;;;5094558;28;19912;-74